sensor_id;sensor_type;location;lat;lon;timestamp;P1;P2;P0
71794;PMS7003;59641;45.188;5.712;2023-03-01T00:01:11;30.00;24.33;16.00
71794;PMS7003;59641;45.188;5.712;2023-03-01T00:03:38;25.00;22.33;16.67
71794;PMS7003;59641;45.188;5.712;2023-03-01T00:06:04;31.33;28.00;18.00
71794;PMS7003;59641;45.188;5.712;2023-03-01T00:08:30;27.67;25.33;17.33
71794;PMS7003;59641;45.188;5.712;2023-03-01T00:11:08;28.33;26.00;16.33
71794;PMS7003;59641;45.188;5.712;2023-03-01T00:13:42;23.33;20.33;13.00
71794;PMS7003;59641;45.188;5.712;2023-03-01T00:16:10;27.00;26.00;18.33
71794;PMS7003;59641;45.188;5.712;2023-03-01T00:18:37;32.33;27.00;19.33
71794;PMS7003;59641;45.188;5.712;2023-03-01T00:21:03;25.00;23.33;16.33
71794;PMS7003;59641;45.188;5.712;2023-03-01T00:23:29;31.00;28.00;19.33
71794;PMS7003;59641;45.188;5.712;2023-03-01T00:25:54;28.67;28.67;19.33
71794;PMS7003;59641;45.188;5.712;2023-03-01T00:28:20;28.00;26.67;18.00
71794;PMS7003;59641;45.188;5.712;2023-03-01T00:30:46;30.00;29.33;18.33
71794;PMS7003;59641;45.188;5.712;2023-03-01T00:33:12;35.33;32.00;19.67
71794;PMS7003;59641;45.188;5.712;2023-03-01T00:35:38;35.67;27.67;18.00
71794;PMS7003;59641;45.188;5.712;2023-03-01T00:38:03;26.67;23.00;17.33
71794;PMS7003;59641;45.188;5.712;2023-03-01T00:40:30;27.33;27.00;20.00
71794;PMS7003;59641;45.188;5.712;2023-03-01T00:42:57;26.33;24.67;18.67
71794;PMS7003;59641;45.188;5.712;2023-03-01T00:45:22;27.33;24.67;16.00
71794;PMS7003;59641;45.188;5.712;2023-03-01T00:47:49;26.33;25.00;18.67
71794;PMS7003;59641;45.188;5.712;2023-03-01T00:50:15;31.00;25.00;18.00
71794;PMS7003;59641;45.188;5.712;2023-03-01T00:52:41;30.33;24.67;17.67
71794;PMS7003;59641;45.188;5.712;2023-03-01T00:55:07;25.33;24.67;17.67
71794;PMS7003;59641;45.188;5.712;2023-03-01T00:57:32;26.33;25.00;18.33
71794;PMS7003;59641;45.188;5.712;2023-03-01T00:59:58;27.67;23.67;17.33
71794;PMS7003;59641;45.188;5.712;2023-03-01T01:02:24;27.00;26.00;18.00
71794;PMS7003;59641;45.188;5.712;2023-03-01T01:04:49;27.00;25.00;16.33
71794;PMS7003;59641;45.188;5.712;2023-03-01T01:07:15;26.00;23.67;16.00
71794;PMS7003;59641;45.188;5.712;2023-03-01T01:09:40;28.33;25.33;18.00
71794;PMS7003;59641;45.188;5.712;2023-03-01T01:12:06;10.33;8.00;0.00
71794;PMS7003;59641;45.188;5.712;2023-03-01T01:14:32;24.33;23.33;16.67
71794;PMS7003;59641;45.188;5.712;2023-03-01T01:16:57;24.67;23.00;19.00
71794;PMS7003;59641;45.188;5.712;2023-03-01T01:19:24;35.33;29.33;17.67
71794;PMS7003;59641;45.188;5.712;2023-03-01T01:21:50;31.00;29.33;20.33
71794;PMS7003;59641;45.188;5.712;2023-03-01T01:24:16;28.00;25.33;19.33
71794;PMS7003;59641;45.188;5.712;2023-03-01T01:26:42;27.33;27.33;18.00
71794;PMS7003;59641;45.188;5.712;2023-03-01T01:29:08;30.67;26.00;18.67
71794;PMS7003;59641;45.188;5.712;2023-03-01T01:31:35;28.33;25.00;19.67
71794;PMS7003;59641;45.188;5.712;2023-03-01T01:34:02;26.33;26.33;18.67
71794;PMS7003;59641;45.188;5.712;2023-03-01T01:36:29;30.33;28.00;21.00
71794;PMS7003;59641;45.188;5.712;2023-03-01T01:38:54;32.67;27.33;17.33
71794;PMS7003;59641;45.188;5.712;2023-03-01T01:41:20;29.00;26.00;18.67
71794;PMS7003;59641;45.188;5.712;2023-03-01T01:50:30;20.00;19.00;16.00
71794;PMS7003;59641;45.188;5.712;2023-03-01T01:53:04;30.33;28.00;17.33
71794;PMS7003;59641;45.188;5.712;2023-03-01T01:55:31;31.33;29.67;20.33
71794;PMS7003;59641;45.188;5.712;2023-03-01T01:57:58;32.33;28.67;20.33
71794;PMS7003;59641;45.188;5.712;2023-03-01T02:00:28;25.00;24.33;18.33
71794;PMS7003;59641;45.188;5.712;2023-03-01T02:02:59;33.00;28.00;18.67
71794;PMS7003;59641;45.188;5.712;2023-03-01T02:06:03;29.33;28.67;22.00
71794;PMS7003;59641;45.188;5.712;2023-03-01T02:08:32;35.33;32.33;22.67
71794;PMS7003;59641;45.188;5.712;2023-03-01T02:11:02;31.00;25.67;18.00
71794;PMS7003;59641;45.188;5.712;2023-03-01T02:13:29;37.00;33.00;20.00
71794;PMS7003;59641;45.188;5.712;2023-03-01T02:15:57;39.67;34.00;22.00
71794;PMS7003;59641;45.188;5.712;2023-03-01T02:18:23;35.00;29.00;21.33
71794;PMS7003;59641;45.188;5.712;2023-03-01T02:24:25;34.33;32.67;21.67
71794;PMS7003;59641;45.188;5.712;2023-03-01T02:26:57;34.67;32.33;22.00
71794;PMS7003;59641;45.188;5.712;2023-03-01T02:29:23;33.00;30.33;19.67
71794;PMS7003;59641;45.188;5.712;2023-03-01T02:31:50;40.67;34.33;22.00
71794;PMS7003;59641;45.188;5.712;2023-03-01T02:34:22;42.00;36.33;24.00
71794;PMS7003;59641;45.188;5.712;2023-03-01T02:39:48;40.00;35.33;22.00
71794;PMS7003;59641;45.188;5.712;2023-03-01T02:42:23;40.00;36.00;23.33
71794;PMS7003;59641;45.188;5.712;2023-03-01T02:44:54;37.33;31.33;22.00
71794;PMS7003;59641;45.188;5.712;2023-03-01T02:47:19;45.67;35.00;23.33
71794;PMS7003;59641;45.188;5.712;2023-03-01T02:49:44;38.33;34.00;22.00
71794;PMS7003;59641;45.188;5.712;2023-03-01T02:55:10;33.00;32.33;20.67
71794;PMS7003;59641;45.188;5.712;2023-03-01T02:57:38;33.00;31.67;21.67
71794;PMS7003;59641;45.188;5.712;2023-03-01T03:00:08;37.67;34.00;22.67
71794;PMS7003;59641;45.188;5.712;2023-03-01T03:02:36;35.33;32.33;20.67
71794;PMS7003;59641;45.188;5.712;2023-03-01T03:05:12;38.67;33.33;19.33
71794;PMS7003;59641;45.188;5.712;2023-03-01T03:07:41;34.00;31.00;22.00
71794;PMS7003;59641;45.188;5.712;2023-03-01T03:10:09;38.67;33.67;22.00
71794;PMS7003;59641;45.188;5.712;2023-03-01T03:12:37;30.67;29.67;19.67
71794;PMS7003;59641;45.188;5.712;2023-03-01T03:15:04;38.00;34.67;20.67
71794;PMS7003;59641;45.188;5.712;2023-03-01T03:17:34;35.33;33.67;20.00
71794;PMS7003;59641;45.188;5.712;2023-03-01T03:20:04;36.33;33.00;20.33
71794;PMS7003;59641;45.188;5.712;2023-03-01T03:22:31;32.00;31.33;19.33
71794;PMS7003;59641;45.188;5.712;2023-03-01T03:24:58;30.67;30.33;21.00
71794;PMS7003;59641;45.188;5.712;2023-03-01T03:27:25;40.00;33.67;22.00
71794;PMS7003;59641;45.188;5.712;2023-03-01T03:29:50;38.67;32.67;21.33
71794;PMS7003;59641;45.188;5.712;2023-03-01T03:32:15;37.33;34.33;21.67
71794;PMS7003;59641;45.188;5.712;2023-03-01T03:34:41;40.33;35.67;23.00
71794;PMS7003;59641;45.188;5.712;2023-03-01T03:37:06;28.33;28.33;20.33
71794;PMS7003;59641;45.188;5.712;2023-03-01T03:39:51;45.33;36.67;23.67
71794;PMS7003;59641;45.188;5.712;2023-03-01T03:42:19;38.00;35.33;23.00
71794;PMS7003;59641;45.188;5.712;2023-03-01T03:44:45;44.67;35.00;23.00
71794;PMS7003;59641;45.188;5.712;2023-03-01T03:47:11;43.33;35.00;22.00
71794;PMS7003;59641;45.188;5.712;2023-03-01T03:49:36;41.00;35.00;22.00
71794;PMS7003;59641;45.188;5.712;2023-03-01T03:52:01;42.33;35.67;22.33
71794;PMS7003;59641;45.188;5.712;2023-03-01T03:54:27;40.00;36.00;22.00
71794;PMS7003;59641;45.188;5.712;2023-03-01T03:56:52;33.67;30.00;20.00
71794;PMS7003;59641;45.188;5.712;2023-03-01T03:59:17;38.00;33.33;21.67
71794;PMS7003;59641;45.188;5.712;2023-03-01T04:01:43;38.33;33.67;21.67
71794;PMS7003;59641;45.188;5.712;2023-03-01T04:04:10;44.67;36.33;22.00
71794;PMS7003;59641;45.188;5.712;2023-03-01T04:06:35;37.00;33.00;22.00
71794;PMS7003;59641;45.188;5.712;2023-03-01T04:09:00;44.67;36.00;24.00
71794;PMS7003;59641;45.188;5.712;2023-03-01T04:11:27;35.67;34.33;22.00
71794;PMS7003;59641;45.188;5.712;2023-03-01T04:13:55;40.33;35.33;22.00
71794;PMS7003;59641;45.188;5.712;2023-03-01T04:16:22;34.33;32.67;21.67
71794;PMS7003;59641;45.188;5.712;2023-03-01T04:18:48;39.33;32.33;20.33
71794;PMS7003;59641;45.188;5.712;2023-03-01T04:21:14;40.00;35.33;22.00
71794;PMS7003;59641;45.188;5.712;2023-03-01T04:23:39;33.33;29.00;19.67
71794;PMS7003;59641;45.188;5.712;2023-03-01T04:26:05;38.67;34.33;22.00
71794;PMS7003;59641;45.188;5.712;2023-03-01T04:28:36;36.33;34.67;22.00
71794;PMS7003;59641;45.188;5.712;2023-03-01T04:31:08;40.00;34.00;22.00
71794;PMS7003;59641;45.188;5.712;2023-03-01T04:33:50;38.33;33.33;22.00
71794;PMS7003;59641;45.188;5.712;2023-03-01T04:36:17;34.67;31.00;21.00
71794;PMS7003;59641;45.188;5.712;2023-03-01T04:38:43;33.33;32.33;21.33
71794;PMS7003;59641;45.188;5.712;2023-03-01T04:41:12;40.67;34.33;22.00
71794;PMS7003;59641;45.188;5.712;2023-03-01T04:43:39;38.67;34.33;22.33
71794;PMS7003;59641;45.188;5.712;2023-03-01T04:46:05;34.00;29.33;19.33
71794;PMS7003;59641;45.188;5.712;2023-03-01T04:48:34;37.00;34.33;21.33
71794;PMS7003;59641;45.188;5.712;2023-03-01T04:51:00;41.33;33.00;20.33
71794;PMS7003;59641;45.188;5.712;2023-03-01T04:53:26;36.33;30.33;20.67
71794;PMS7003;59641;45.188;5.712;2023-03-01T04:55:53;40.33;35.00;22.00
71794;PMS7003;59641;45.188;5.712;2023-03-01T04:58:20;33.00;29.67;20.00
71794;PMS7003;59641;45.188;5.712;2023-03-01T05:00:47;48.00;36.33;24.00
71794;PMS7003;59641;45.188;5.712;2023-03-01T05:03:12;40.00;34.67;22.00
71794;PMS7003;59641;45.188;5.712;2023-03-01T05:05:42;39.33;34.00;22.00
71794;PMS7003;59641;45.188;5.712;2023-03-01T05:08:09;33.33;31.33;22.00
71794;PMS7003;59641;45.188;5.712;2023-03-01T05:10:42;39.33;33.00;21.67
71794;PMS7003;59641;45.188;5.712;2023-03-01T05:13:11;40.33;34.00;20.00
71794;PMS7003;59641;45.188;5.712;2023-03-01T05:15:38;48.33;37.00;22.67
71794;PMS7003;59641;45.188;5.712;2023-03-01T05:18:04;44.67;39.00;24.00
71794;PMS7003;59641;45.188;5.712;2023-03-01T05:20:36;43.67;36.00;22.00
71794;PMS7003;59641;45.188;5.712;2023-03-01T05:23:02;36.00;29.33;17.67
71794;PMS7003;59641;45.188;5.712;2023-03-01T05:25:30;40.00;35.33;23.00
71794;PMS7003;59641;45.188;5.712;2023-03-01T05:27:58;42.00;34.00;22.00
71794;PMS7003;59641;45.188;5.712;2023-03-01T05:30:29;33.67;30.67;18.33
71794;PMS7003;59641;45.188;5.712;2023-03-01T05:32:56;37.33;32.33;21.00
71794;PMS7003;59641;45.188;5.712;2023-03-01T05:35:21;32.33;32.33;22.00
71794;PMS7003;59641;45.188;5.712;2023-03-01T05:37:48;35.67;33.33;20.00
71794;PMS7003;59641;45.188;5.712;2023-03-01T05:40:18;37.67;32.33;21.33
71794;PMS7003;59641;45.188;5.712;2023-03-01T05:42:46;37.33;33.67;21.00
71794;PMS7003;59641;45.188;5.712;2023-03-01T05:45:14;39.67;33.33;23.00
71794;PMS7003;59641;45.188;5.712;2023-03-01T05:47:41;40.00;34.67;23.67
71794;PMS7003;59641;45.188;5.712;2023-03-01T05:52:49;36.67;32.00;21.67
71794;PMS7003;59641;45.188;5.712;2023-03-01T05:55:17;39.33;34.00;22.00
71794;PMS7003;59641;45.188;5.712;2023-03-01T05:57:44;37.67;33.00;20.67
71794;PMS7003;59641;45.188;5.712;2023-03-01T06:00:10;31.00;26.00;19.67
71794;PMS7003;59641;45.188;5.712;2023-03-01T06:02:37;42.67;32.33;18.67
71794;PMS7003;59641;45.188;5.712;2023-03-01T06:05:03;36.00;32.67;20.67
71794;PMS7003;59641;45.188;5.712;2023-03-01T06:07:29;38.67;31.67;20.67
71794;PMS7003;59641;45.188;5.712;2023-03-01T06:09:55;42.00;36.00;23.00
71794;PMS7003;59641;45.188;5.712;2023-03-01T06:12:20;43.00;36.00;23.00
71794;PMS7003;59641;45.188;5.712;2023-03-01T06:14:46;40.67;34.33;23.00
71794;PMS7003;59641;45.188;5.712;2023-03-01T06:17:12;45.33;36.33;23.33
71794;PMS7003;59641;45.188;5.712;2023-03-01T06:19:38;44.33;38.00;24.00
71794;PMS7003;59641;45.188;5.712;2023-03-01T06:22:03;21.33;21.33;19.67
71794;PMS7003;59641;45.188;5.712;2023-03-01T06:24:29;45.00;33.67;21.67
71794;PMS7003;59641;45.188;5.712;2023-03-01T06:26:54;45.00;36.33;22.00
71794;PMS7003;59641;45.188;5.712;2023-03-01T06:29:20;41.67;36.00;23.00
71794;PMS7003;59641;45.188;5.712;2023-03-01T06:31:47;43.33;37.00;24.00
71794;PMS7003;59641;45.188;5.712;2023-03-01T06:34:12;44.67;37.00;24.33
71794;PMS7003;59641;45.188;5.712;2023-03-01T06:36:38;45.33;38.33;24.33
71794;PMS7003;59641;45.188;5.712;2023-03-01T06:39:04;46.50;39.00;23.00
71794;PMS7003;59641;45.188;5.712;2023-03-01T06:41:31;35.00;33.00;21.00
71794;PMS7003;59641;45.188;5.712;2023-03-01T06:43:57;35.00;30.67;19.00
71794;PMS7003;59641;45.188;5.712;2023-03-01T06:46:23;30.00;27.33;18.00
71794;PMS7003;59641;45.188;5.712;2023-03-01T06:48:49;35.00;34.00;20.67
71794;PMS7003;59641;45.188;5.712;2023-03-01T06:51:14;40.33;32.00;21.00
71794;PMS7003;59641;45.188;5.712;2023-03-01T06:53:39;31.33;30.33;19.33
71794;PMS7003;59641;45.188;5.712;2023-03-01T06:56:05;39.00;33.67;22.00
71794;PMS7003;59641;45.188;5.712;2023-03-01T06:58:30;37.67;33.33;21.67
71794;PMS7003;59641;45.188;5.712;2023-03-01T07:00:56;37.67;31.67;22.00
71794;PMS7003;59641;45.188;5.712;2023-03-01T07:03:21;44.00;34.33;22.00
71794;PMS7003;59641;45.188;5.712;2023-03-01T07:05:50;37.00;31.67;22.00
71794;PMS7003;59641;45.188;5.712;2023-03-01T07:08:19;37.00;33.00;21.33
71794;PMS7003;59641;45.188;5.712;2023-03-01T07:10:45;41.33;33.33;22.00
71794;PMS7003;59641;45.188;5.712;2023-03-01T07:13:10;45.67;36.00;23.00
71794;PMS7003;59641;45.188;5.712;2023-03-01T07:15:35;39.67;33.33;22.00
71794;PMS7003;59641;45.188;5.712;2023-03-01T07:18:01;42.00;35.67;22.00
71794;PMS7003;59641;45.188;5.712;2023-03-01T07:20:27;43.33;36.67;22.00
71794;PMS7003;59641;45.188;5.712;2023-03-01T07:22:53;33.67;30.00;16.67
71794;PMS7003;59641;45.188;5.712;2023-03-01T07:25:19;39.33;34.00;23.00
71794;PMS7003;59641;45.188;5.712;2023-03-01T07:27:49;35.00;31.67;22.00
71794;PMS7003;59641;45.188;5.712;2023-03-01T07:30:16;32.00;30.33;22.00
71794;PMS7003;59641;45.188;5.712;2023-03-01T07:32:41;39.33;35.00;22.33
71794;PMS7003;59641;45.188;5.712;2023-03-01T07:35:07;35.67;33.67;22.00
71794;PMS7003;59641;45.188;5.712;2023-03-01T07:37:32;42.33;35.33;22.00
71794;PMS7003;59641;45.188;5.712;2023-03-01T07:39:58;36.67;32.00;22.00
71794;PMS7003;59641;45.188;5.712;2023-03-01T07:42:23;35.67;30.33;20.67
71794;PMS7003;59641;45.188;5.712;2023-03-01T07:44:48;36.33;32.67;21.00
71794;PMS7003;59641;45.188;5.712;2023-03-01T07:47:14;42.00;34.00;22.33
71794;PMS7003;59641;45.188;5.712;2023-03-01T07:49:39;34.67;33.00;22.00
71794;PMS7003;59641;45.188;5.712;2023-03-01T07:52:05;35.67;31.67;22.00
71794;PMS7003;59641;45.188;5.712;2023-03-01T07:54:30;39.67;34.67;21.00
71794;PMS7003;59641;45.188;5.712;2023-03-01T07:56:56;38.00;33.00;21.33
71794;PMS7003;59641;45.188;5.712;2023-03-01T07:59:22;36.33;31.67;21.00
71794;PMS7003;59641;45.188;5.712;2023-03-01T08:01:53;39.00;33.00;22.00
71794;PMS7003;59641;45.188;5.712;2023-03-01T08:04:19;44.33;36.67;22.33
71794;PMS7003;59641;45.188;5.712;2023-03-01T08:06:44;46.33;33.00;23.67
71794;PMS7003;59641;45.188;5.712;2023-03-01T08:09:10;39.00;33.33;22.00
71794;PMS7003;59641;45.188;5.712;2023-03-01T08:11:35;40.33;34.67;21.00
71794;PMS7003;59641;45.188;5.712;2023-03-01T08:14:00;36.67;33.67;23.00
71794;PMS7003;59641;45.188;5.712;2023-03-01T08:16:26;39.33;33.33;20.33
71794;PMS7003;59641;45.188;5.712;2023-03-01T08:18:51;42.33;36.33;24.00
71794;PMS7003;59641;45.188;5.712;2023-03-01T08:21:17;45.67;37.67;24.00
71794;PMS7003;59641;45.188;5.712;2023-03-01T08:23:43;47.00;38.33;22.67
71794;PMS7003;59641;45.188;5.712;2023-03-01T08:26:13;41.67;36.33;24.00
71794;PMS7003;59641;45.188;5.712;2023-03-01T08:28:40;43.00;36.67;22.33
71794;PMS7003;59641;45.188;5.712;2023-03-01T08:31:13;45.00;36.33;22.67
71794;PMS7003;59641;45.188;5.712;2023-03-01T08:33:40;44.00;36.00;23.00
71794;PMS7003;59641;45.188;5.712;2023-03-01T08:36:09;42.00;36.00;22.00
71794;PMS7003;59641;45.188;5.712;2023-03-01T08:38:35;47.33;39.33;23.00
71794;PMS7003;59641;45.188;5.712;2023-03-01T08:41:01;39.67;35.33;21.67
71794;PMS7003;59641;45.188;5.712;2023-03-01T08:43:27;42.33;37.00;22.67
71794;PMS7003;59641;45.188;5.712;2023-03-01T08:45:53;37.67;35.33;24.00
71794;PMS7003;59641;45.188;5.712;2023-03-01T08:48:18;55.67;41.33;24.00
71794;PMS7003;59641;45.188;5.712;2023-03-01T08:50:43;40.00;37.00;24.33
71794;PMS7003;59641;45.188;5.712;2023-03-01T08:53:09;44.00;36.33;24.00
71794;PMS7003;59641;45.188;5.712;2023-03-01T08:55:34;50.33;41.33;26.00
71794;PMS7003;59641;45.188;5.712;2023-03-01T08:58:00;48.00;38.67;26.00
71794;PMS7003;59641;45.188;5.712;2023-03-01T09:00:25;49.33;38.67;23.67
71794;PMS7003;59641;45.188;5.712;2023-03-01T09:02:51;46.33;38.33;24.00
71794;PMS7003;59641;45.188;5.712;2023-03-01T09:05:16;47.33;39.33;25.33
71794;PMS7003;59641;45.188;5.712;2023-03-01T09:07:42;47.33;39.67;24.33
71794;PMS7003;59641;45.188;5.712;2023-03-01T09:10:07;42.00;36.33;24.00
71794;PMS7003;59641;45.188;5.712;2023-03-01T09:12:33;45.33;36.33;24.00
71794;PMS7003;59641;45.188;5.712;2023-03-01T09:14:59;45.00;36.00;24.00
71794;PMS7003;59641;45.188;5.712;2023-03-01T09:17:24;47.00;36.33;24.00
71794;PMS7003;59641;45.188;5.712;2023-03-01T09:19:49;52.00;40.00;24.67
71794;PMS7003;59641;45.188;5.712;2023-03-01T09:22:15;45.33;35.33;24.00
71794;PMS7003;59641;45.188;5.712;2023-03-01T09:24:40;50.00;39.33;23.67
71794;PMS7003;59641;45.188;5.712;2023-03-01T09:27:06;38.67;33.67;24.00
71794;PMS7003;59641;45.188;5.712;2023-03-01T09:29:33;40.67;35.00;22.00
71794;PMS7003;59641;45.188;5.712;2023-03-01T09:32:00;38.67;35.33;22.00
71794;PMS7003;59641;45.188;5.712;2023-03-01T09:34:26;53.33;38.33;24.00
71794;PMS7003;59641;45.188;5.712;2023-03-01T09:36:51;49.33;37.33;23.33
71794;PMS7003;59641;45.188;5.712;2023-03-01T09:39:17;44.33;38.00;22.33
71794;PMS7003;59641;45.188;5.712;2023-03-01T09:42:01;43.67;36.67;19.00
71794;PMS7003;59641;45.188;5.712;2023-03-01T09:46:56;48.67;38.67;24.00
71794;PMS7003;59641;45.188;5.712;2023-03-01T09:49:25;51.00;41.00;23.67
71794;PMS7003;59641;45.188;5.712;2023-03-01T09:54:49;53.33;39.33;25.33
71794;PMS7003;59641;45.188;5.712;2023-03-01T09:57:20;37.00;34.33;22.00
71794;PMS7003;59641;45.188;5.712;2023-03-01T10:02:43;50.33;39.67;22.00
71794;PMS7003;59641;45.188;5.712;2023-03-01T10:10:38;31.00;26.00;15.67
71794;PMS7003;59641;45.188;5.712;2023-03-01T10:13:10;52.67;40.00;25.33
71794;PMS7003;59641;45.188;5.712;2023-03-01T10:15:44;53.67;42.00;24.00
71794;PMS7003;59641;45.188;5.712;2023-03-01T10:18:19;39.33;33.00;24.67
71794;PMS7003;59641;45.188;5.712;2023-03-01T10:23:51;35.33;34.33;22.33
71794;PMS7003;59641;45.188;5.712;2023-03-01T10:29:08;52.33;41.67;24.33
71794;PMS7003;59641;45.188;5.712;2023-03-01T10:34:13;50.33;36.33;23.00
71794;PMS7003;59641;45.188;5.712;2023-03-01T10:36:41;47.33;39.33;24.00
71794;PMS7003;59641;45.188;5.712;2023-03-01T10:39:12;48.00;38.33;24.00
71794;PMS7003;59641;45.188;5.712;2023-03-01T10:41:53;48.00;38.67;24.33
71794;PMS7003;59641;45.188;5.712;2023-03-01T10:47:15;38.33;34.00;22.33
71794;PMS7003;59641;45.188;5.712;2023-03-01T10:49:55;39.00;32.00;16.33
71794;PMS7003;59641;45.188;5.712;2023-03-01T10:52:27;47.33;39.33;25.00
71794;PMS7003;59641;45.188;5.712;2023-03-01T10:57:41;41.67;35.00;22.00
71794;PMS7003;59641;45.188;5.712;2023-03-01T11:02:45;54.67;45.00;26.33
71794;PMS7003;59641;45.188;5.712;2023-03-01T11:07:51;50.00;40.00;26.67
71794;PMS7003;59641;45.188;5.712;2023-03-01T11:12:50;40.67;34.67;22.00
71794;PMS7003;59641;45.188;5.712;2023-03-01T11:15:21;53.00;40.33;24.00
71794;PMS7003;59641;45.188;5.712;2023-03-01T11:17:53;48.00;38.67;24.00
71794;PMS7003;59641;45.188;5.712;2023-03-01T11:20:24;46.67;36.67;25.00
71794;PMS7003;59641;45.188;5.712;2023-03-01T11:22:55;43.00;36.00;23.00
71794;PMS7003;59641;45.188;5.712;2023-03-01T11:25:31;47.67;36.33;24.00
71794;PMS7003;59641;45.188;5.712;2023-03-01T11:28:01;52.33;39.00;24.00
71794;PMS7003;59641;45.188;5.712;2023-03-01T11:30:31;46.67;37.67;23.67
71794;PMS7003;59641;45.188;5.712;2023-03-01T11:36:21;50.00;41.00;25.33
71794;PMS7003;59641;45.188;5.712;2023-03-01T11:38:48;46.67;38.67;24.67
71794;PMS7003;59641;45.188;5.712;2023-03-01T11:41:20;45.00;37.00;25.00
71794;PMS7003;59641;45.188;5.712;2023-03-01T11:43:56;46.33;40.67;24.67
71794;PMS7003;59641;45.188;5.712;2023-03-01T11:54:21;48.00;41.00;25.00
71794;PMS7003;59641;45.188;5.712;2023-03-01T11:59:49;44.67;39.67;25.00
71794;PMS7003;59641;45.188;5.712;2023-03-01T12:10:44;49.67;39.00;22.00
71794;PMS7003;59641;45.188;5.712;2023-03-01T12:21:53;47.00;36.00;24.00
71794;PMS7003;59641;45.188;5.712;2023-03-01T12:35:51;43.67;36.67;22.00
71794;PMS7003;59641;45.188;5.712;2023-03-01T12:47:14;42.00;36.67;23.33
71794;PMS7003;59641;45.188;5.712;2023-03-01T12:52:26;49.00;41.33;24.67
71794;PMS7003;59641;45.188;5.712;2023-03-01T12:55:02;42.33;36.00;23.67
71794;PMS7003;59641;45.188;5.712;2023-03-01T12:57:46;50.00;39.33;22.67
71794;PMS7003;59641;45.188;5.712;2023-03-01T13:03:01;45.33;36.00;23.67
71794;PMS7003;59641;45.188;5.712;2023-03-01T13:11:22;44.33;35.33;22.67
71794;PMS7003;59641;45.188;5.712;2023-03-01T13:13:49;43.33;36.67;24.33
71794;PMS7003;59641;45.188;5.712;2023-03-01T13:16:20;51.00;39.33;24.67
71794;PMS7003;59641;45.188;5.712;2023-03-01T13:21:42;38.67;33.67;23.33
71794;PMS7003;59641;45.188;5.712;2023-03-01T13:24:25;47.33;39.00;24.33
71794;PMS7003;59641;45.188;5.712;2023-03-01T13:29:32;44.67;36.00;23.33
71794;PMS7003;59641;45.188;5.712;2023-03-01T13:32:21;51.67;42.00;25.00
71794;PMS7003;59641;45.188;5.712;2023-03-01T13:35:48;49.00;38.00;24.33
71794;PMS7003;59641;45.188;5.712;2023-03-01T13:37:51;46.00;36.00;21.00
71794;PMS7003;59641;45.188;5.712;2023-03-01T13:42:46;46.67;37.67;22.67
71794;PMS7003;59641;45.188;5.712;2023-03-01T13:45:21;48.67;38.00;23.00
71794;PMS7003;59641;45.188;5.712;2023-03-01T13:47:54;45.67;38.00;25.00
71794;PMS7003;59641;45.188;5.712;2023-03-01T13:50:24;50.33;39.00;24.00
71794;PMS7003;59641;45.188;5.712;2023-03-01T13:52:53;50.33;39.00;25.00
71794;PMS7003;59641;45.188;5.712;2023-03-01T13:55:25;48.00;39.00;24.00
71794;PMS7003;59641;45.188;5.712;2023-03-01T13:58:04;45.00;37.67;22.67
71794;PMS7003;59641;45.188;5.712;2023-03-01T14:00:40;48.00;40.33;25.67
71794;PMS7003;59641;45.188;5.712;2023-03-01T14:03:14;43.67;35.33;23.33
71794;PMS7003;59641;45.188;5.712;2023-03-01T14:05:40;47.33;39.00;24.00
71794;PMS7003;59641;45.188;5.712;2023-03-01T14:08:18;49.00;40.33;24.00
71794;PMS7003;59641;45.188;5.712;2023-03-01T14:11:09;42.67;36.00;24.00
71794;PMS7003;59641;45.188;5.712;2023-03-01T14:16:52;39.33;32.67;22.00
71794;PMS7003;59641;45.188;5.712;2023-03-01T14:19:24;39.33;36.00;23.67
71794;PMS7003;59641;45.188;5.712;2023-03-01T14:24:50;44.00;36.00;23.00
71794;PMS7003;59641;45.188;5.712;2023-03-01T14:27:17;43.33;36.00;22.33
71794;PMS7003;59641;45.188;5.712;2023-03-01T14:29:43;50.00;40.33;25.00
71794;PMS7003;59641;45.188;5.712;2023-03-01T14:32:24;47.00;35.33;24.00
71794;PMS7003;59641;45.188;5.712;2023-03-01T14:34:51;44.67;38.33;24.00
71794;PMS7003;59641;45.188;5.712;2023-03-01T14:37:18;49.33;38.33;24.00
71794;PMS7003;59641;45.188;5.712;2023-03-01T14:39:44;49.33;38.00;24.00
71794;PMS7003;59641;45.188;5.712;2023-03-01T14:42:09;49.33;39.00;24.33
71794;PMS7003;59641;45.188;5.712;2023-03-01T14:44:34;46.67;37.67;24.00
71794;PMS7003;59641;45.188;5.712;2023-03-01T14:47:02;52.00;41.67;25.00
71794;PMS7003;59641;45.188;5.712;2023-03-01T14:49:29;51.33;41.00;26.00
71794;PMS7003;59641;45.188;5.712;2023-03-01T14:51:57;44.67;38.33;24.67
71794;PMS7003;59641;45.188;5.712;2023-03-01T14:54:36;49.00;39.00;25.00
71794;PMS7003;59641;45.188;5.712;2023-03-01T14:57:03;46.33;38.00;23.33
71794;PMS7003;59641;45.188;5.712;2023-03-01T14:59:29;43.33;36.00;21.67
71794;PMS7003;59641;45.188;5.712;2023-03-01T15:01:55;49.67;41.00;24.33
71794;PMS7003;59641;45.188;5.712;2023-03-01T15:04:23;49.33;42.00;25.00
71794;PMS7003;59641;45.188;5.712;2023-03-01T15:06:51;50.33;38.00;22.33
71794;PMS7003;59641;45.188;5.712;2023-03-01T15:09:19;49.67;41.00;25.00
71794;PMS7003;59641;45.188;5.712;2023-03-01T15:11:46;53.67;42.00;25.33
71794;PMS7003;59641;45.188;5.712;2023-03-01T15:19:56;51.33;42.00;26.00
71794;PMS7003;59641;45.188;5.712;2023-03-01T15:22:22;47.00;39.33;26.00
71794;PMS7003;59641;45.188;5.712;2023-03-01T15:24:50;48.67;40.00;25.00
71794;PMS7003;59641;45.188;5.712;2023-03-01T15:27:16;50.00;38.33;24.33
71794;PMS7003;59641;45.188;5.712;2023-03-01T15:29:53;55.00;40.33;26.00
71794;PMS7003;59641;45.188;5.712;2023-03-01T15:34:54;53.67;43.00;26.00
71794;PMS7003;59641;45.188;5.712;2023-03-01T15:40:25;51.33;40.67;26.00
71794;PMS7003;59641;45.188;5.712;2023-03-01T15:43:02;53.33;42.33;26.00
71794;PMS7003;59641;45.188;5.712;2023-03-01T15:45:30;49.67;41.00;25.33
71794;PMS7003;59641;45.188;5.712;2023-03-01T15:48:03;52.00;42.00;26.00
71794;PMS7003;59641;45.188;5.712;2023-03-01T15:52:58;43.67;35.33;22.00
71794;PMS7003;59641;45.188;5.712;2023-03-01T15:55:26;33.33;33.00;22.67
71794;PMS7003;59641;45.188;5.712;2023-03-01T15:58:13;48.67;38.33;24.67
71794;PMS7003;59641;45.188;5.712;2023-03-01T16:00:41;50.00;39.67;26.00
71794;PMS7003;59641;45.188;5.712;2023-03-01T16:03:07;38.67;33.00;22.67
71794;PMS7003;59641;45.188;5.712;2023-03-01T16:05:36;52.33;41.67;26.00
71794;PMS7003;59641;45.188;5.712;2023-03-01T16:08:03;40.67;34.00;24.00
71794;PMS7003;59641;45.188;5.712;2023-03-01T16:10:30;57.00;44.00;26.33
71794;PMS7003;59641;45.188;5.712;2023-03-01T16:12:56;52.00;41.33;25.00
71794;PMS7003;59641;45.188;5.712;2023-03-01T16:15:23;44.00;38.33;24.00
71794;PMS7003;59641;45.188;5.712;2023-03-01T16:17:52;57.00;46.33;28.33